sensor_id;sensor_type;location;lat;lon;timestamp;temperature;humidity
71668;DHT22;59504;54.806;9.640;2024-02-21T00:01:27;8.10;90.00
71668;DHT22;59504;54.806;9.640;2024-02-21T00:03:46;8.10;90.00
71668;DHT22;59504;54.806;9.640;2024-02-21T00:06:05;8.10;90.00
71668;DHT22;59504;54.806;9.640;2024-02-21T00:08:24;8.10;90.00
71668;DHT22;59504;54.806;9.640;2024-02-21T00:10:43;8.10;90.00
71668;DHT22;59504;54.806;9.640;2024-02-21T00:13:03;8.20;90.40
71668;DHT22;59504;54.806;9.640;2024-02-21T00:15:22;8.10;90.00
71668;DHT22;59504;54.806;9.640;2024-02-21T00:17:43;8.20;90.10
71668;DHT22;59504;54.806;9.640;2024-02-21T00:20:02;8.20;90.40
71668;DHT22;59504;54.806;9.640;2024-02-21T00:22:21;8.20;90.10
71668;DHT22;59504;54.806;9.640;2024-02-21T00:24:41;8.20;90.40
71668;DHT22;59504;54.806;9.640;2024-02-21T00:27:00;8.20;90.00
71668;DHT22;59504;54.806;9.640;2024-02-21T00:29:19;8.20;90.10
71668;DHT22;59504;54.806;9.640;2024-02-21T00:31:39;8.20;90.10
71668;DHT22;59504;54.806;9.640;2024-02-21T00:33:58;8.30;90.10
71668;DHT22;59504;54.806;9.640;2024-02-21T00:36:17;8.30;90.10
71668;DHT22;59504;54.806;9.640;2024-02-21T00:38:36;8.30;90.10
71668;DHT22;59504;54.806;9.640;2024-02-21T00:40:55;8.30;90.10
71668;DHT22;59504;54.806;9.640;2024-02-21T00:43:15;8.30;90.10
71668;DHT22;59504;54.806;9.640;2024-02-21T00:45:34;8.30;90.10
71668;DHT22;59504;54.806;9.640;2024-02-21T00:47:53;8.30;90.10
71668;DHT22;59504;54.806;9.640;2024-02-21T00:50:13;8.30;90.10
71668;DHT22;59504;54.806;9.640;2024-02-21T00:52:32;8.30;90.40
71668;DHT22;59504;54.806;9.640;2024-02-21T00:54:51;8.40;90.10
71668;DHT22;59504;54.806;9.640;2024-02-21T00:57:10;8.40;90.10
71668;DHT22;59504;54.806;9.640;2024-02-21T00:59:29;8.40;90.50
71668;DHT22;59504;54.806;9.640;2024-02-21T01:01:49;8.40;90.10
71668;DHT22;59504;54.806;9.640;2024-02-21T01:04:09;8.40;90.40
71668;DHT22;59504;54.806;9.640;2024-02-21T01:06:28;8.40;90.10
71668;DHT22;59504;54.806;9.640;2024-02-21T01:08:47;8.40;90.10
71668;DHT22;59504;54.806;9.640;2024-02-21T01:11:06;8.40;90.10
71668;DHT22;59504;54.806;9.640;2024-02-21T01:13:26;8.40;90.10
71668;DHT22;59504;54.806;9.640;2024-02-21T01:15:45;8.40;90.00
71668;DHT22;59504;54.806;9.640;2024-02-21T01:18:04;8.40;90.10
71668;DHT22;59504;54.806;9.640;2024-02-21T01:20:24;8.40;90.40
71668;DHT22;59504;54.806;9.640;2024-02-21T01:22:43;8.40;90.40
71668;DHT22;59504;54.806;9.640;2024-02-21T01:25:02;8.40;90.00
71668;DHT22;59504;54.806;9.640;2024-02-21T01:27:21;8.40;90.10
71668;DHT22;59504;54.806;9.640;2024-02-21T01:29:41;8.40;90.00
71668;DHT22;59504;54.806;9.640;2024-02-21T01:32:00;8.40;90.10
71668;DHT22;59504;54.806;9.640;2024-02-21T01:34:19;8.40;90.10
71668;DHT22;59504;54.806;9.640;2024-02-21T01:36:38;8.40;90.10
71668;DHT22;59504;54.806;9.640;2024-02-21T01:38:58;8.40;90.00
71668;DHT22;59504;54.806;9.640;2024-02-21T01:41:17;8.40;90.10
71668;DHT22;59504;54.806;9.640;2024-02-21T01:43:37;8.40;90.10
71668;DHT22;59504;54.806;9.640;2024-02-21T01:45:56;8.40;90.10
71668;DHT22;59504;54.806;9.640;2024-02-21T01:48:16;8.40;90.10
71668;DHT22;59504;54.806;9.640;2024-02-21T01:50:35;8.50;90.10
71668;DHT22;59504;54.806;9.640;2024-02-21T01:52:55;8.40;90.00
71668;DHT22;59504;54.806;9.640;2024-02-21T01:55:14;8.40;90.10
71668;DHT22;59504;54.806;9.640;2024-02-21T01:57:33;8.40;90.10
71668;DHT22;59504;54.806;9.640;2024-02-21T01:59:52;8.50;90.20
71668;DHT22;59504;54.806;9.640;2024-02-21T02:02:13;8.50;90.20
71668;DHT22;59504;54.806;9.640;2024-02-21T02:04:33;8.40;90.20
71668;DHT22;59504;54.806;9.640;2024-02-21T02:07:07;8.50;90.20
71668;DHT22;59504;54.806;9.640;2024-02-21T02:09:26;8.50;90.20
71668;DHT22;59504;54.806;9.640;2024-02-21T02:11:45;8.50;90.20
71668;DHT22;59504;54.806;9.640;2024-02-21T02:14:05;8.50;90.30
71668;DHT22;59504;54.806;9.640;2024-02-21T02:16:24;8.50;89.90
71668;DHT22;59504;54.806;9.640;2024-02-21T02:18:43;8.50;90.60
71668;DHT22;59504;54.806;9.640;2024-02-21T02:21:04;8.50;90.20
71668;DHT22;59504;54.806;9.640;2024-02-21T02:23:30;8.50;90.30
71668;DHT22;59504;54.806;9.640;2024-02-21T02:25:50;8.50;90.20
71668;DHT22;59504;54.806;9.640;2024-02-21T02:28:11;8.50;90.20
71668;DHT22;59504;54.806;9.640;2024-02-21T02:30:34;8.50;90.30
71668;DHT22;59504;54.806;9.640;2024-02-21T02:32:54;8.50;90.20
71668;DHT22;59504;54.806;9.640;2024-02-21T02:35:14;8.50;90.30
71668;DHT22;59504;54.806;9.640;2024-02-21T02:37:33;8.50;90.30
71668;DHT22;59504;54.806;9.640;2024-02-21T02:39:52;8.40;90.20
71668;DHT22;59504;54.806;9.640;2024-02-21T02:42:11;8.50;90.30
71668;DHT22;59504;54.806;9.640;2024-02-21T02:44:31;8.50;90.60
71668;DHT22;59504;54.806;9.640;2024-02-21T02:46:50;8.40;90.20
71668;DHT22;59504;54.806;9.640;2024-02-21T02:49:09;8.40;90.30
71668;DHT22;59504;54.806;9.640;2024-02-21T02:51:28;8.40;90.30
71668;DHT22;59504;54.806;9.640;2024-02-21T02:53:47;8.50;90.40
71668;DHT22;59504;54.806;9.640;2024-02-21T02:56:07;8.40;90.30
71668;DHT22;59504;54.806;9.640;2024-02-21T02:58:26;8.40;90.30
71668;DHT22;59504;54.806;9.640;2024-02-21T03:00:45;8.40;90.30
71668;DHT22;59504;54.806;9.640;2024-02-21T03:03:04;8.40;90.30
71668;DHT22;59504;54.806;9.640;2024-02-21T03:05:24;8.40;90.30
71668;DHT22;59504;54.806;9.640;2024-02-21T03:07:43;8.30;90.30
71668;DHT22;59504;54.806;9.640;2024-02-21T03:10:02;8.30;90.70
71668;DHT22;59504;54.806;9.640;2024-02-21T03:12:22;8.30;90.30
71668;DHT22;59504;54.806;9.640;2024-02-21T03:14:46;8.30;90.30
71668;DHT22;59504;54.806;9.640;2024-02-21T03:17:05;8.30;90.30
71668;DHT22;59504;54.806;9.640;2024-02-21T03:19:25;8.30;90.20
71668;DHT22;59504;54.806;9.640;2024-02-21T03:21:44;8.20;90.50
71668;DHT22;59504;54.806;9.640;2024-02-21T03:24:03;8.20;90.00
71668;DHT22;59504;54.806;9.640;2024-02-21T03:26:23;8.20;90.10
71668;DHT22;59504;54.806;9.640;2024-02-21T03:28:42;8.20;90.10
71668;DHT22;59504;54.806;9.640;2024-02-21T03:31:03;8.20;90.00
71668;DHT22;59504;54.806;9.640;2024-02-21T03:33:22;8.10;90.00
71668;DHT22;59504;54.806;9.640;2024-02-21T03:35:42;8.10;89.90
71668;DHT22;59504;54.806;9.640;2024-02-21T03:38:01;8.10;89.70
71668;DHT22;59504;54.806;9.640;2024-02-21T03:40:21;8.10;89.50
71668;DHT22;59504;54.806;9.640;2024-02-21T03:42:40;8.10;89.50
71668;DHT22;59504;54.806;9.640;2024-02-21T03:44:59;8.10;89.40
71668;DHT22;59504;54.806;9.640;2024-02-21T03:47:19;8.10;89.00
71668;DHT22;59504;54.806;9.640;2024-02-21T03:49:38;8.10;88.90
71668;DHT22;59504;54.806;9.640;2024-02-21T03:51:57;8.10;89.50
71668;DHT22;59504;54.806;9.640;2024-02-21T03:54:16;8.10;88.50
71668;DHT22;59504;54.806;9.640;2024-02-21T03:56:38;8.10;88.30
71668;DHT22;59504;54.806;9.640;2024-02-21T03:58:58;8.00;88.10
71668;DHT22;59504;54.806;9.640;2024-02-21T04:01:17;8.10;88.20
71668;DHT22;59504;54.806;9.640;2024-02-21T04:03:36;8.00;87.90
71668;DHT22;59504;54.806;9.640;2024-02-21T04:05:56;8.00;88.40
71668;DHT22;59504;54.806;9.640;2024-02-21T04:08:15;8.00;87.60
71668;DHT22;59504;54.806;9.640;2024-02-21T04:10:34;8.00;87.40
71668;DHT22;59504;54.806;9.640;2024-02-21T04:12:54;8.00;88.00
71668;DHT22;59504;54.806;9.640;2024-02-21T04:15:13;8.00;86.80
71668;DHT22;59504;54.806;9.640;2024-02-21T04:17:33;7.90;87.30
71668;DHT22;59504;54.806;9.640;2024-02-21T04:19:53;7.90;86.40
71668;DHT22;59504;54.806;9.640;2024-02-21T04:22:20;7.90;86.50
71668;DHT22;59504;54.806;9.640;2024-02-21T04:24:39;7.90;86.40
71668;DHT22;59504;54.806;9.640;2024-02-21T04:26:58;7.80;85.80
71668;DHT22;59504;54.806;9.640;2024-02-21T04:29:18;7.90;86.10
71668;DHT22;59504;54.806;9.640;2024-02-21T04:31:37;7.80;85.70
71668;DHT22;59504;54.806;9.640;2024-02-21T04:33:56;7.90;85.90
71668;DHT22;59504;54.806;9.640;2024-02-21T04:36:16;7.80;86.00
71668;DHT22;59504;54.806;9.640;2024-02-21T04:38:35;7.80;86.60
71668;DHT22;59504;54.806;9.640;2024-02-21T04:40:55;7.80;85.50
71668;DHT22;59504;54.806;9.640;2024-02-21T04:43:17;7.70;85.10
71668;DHT22;59504;54.806;9.640;2024-02-21T04:45:36;7.70;86.10
71668;DHT22;59504;54.806;9.640;2024-02-21T04:47:55;7.80;85.30
71668;DHT22;59504;54.806;9.640;2024-02-21T04:50:14;7.60;86.10
71668;DHT22;59504;54.806;9.640;2024-02-21T04:52:34;7.60;85.20
71668;DHT22;59504;54.806;9.640;2024-02-21T04:54:53;7.70;85.80
71668;DHT22;59504;54.806;9.640;2024-02-21T04:57:12;7.60;85.30
71668;DHT22;59504;54.806;9.640;2024-02-21T04:59:36;7.60;86.10
71668;DHT22;59504;54.806;9.640;2024-02-21T05:01:55;7.50;85.30
71668;DHT22;59504;54.806;9.640;2024-02-21T05:04:14;7.50;86.20
71668;DHT22;59504;54.806;9.640;2024-02-21T05:06:37;7.50;85.50
71668;DHT22;59504;54.806;9.640;2024-02-21T05:08:57;7.40;85.50
71668;DHT22;59504;54.806;9.640;2024-02-21T05:11:16;7.40;85.50
71668;DHT22;59504;54.806;9.640;2024-02-21T05:13:36;7.40;85.50
71668;DHT22;59504;54.806;9.640;2024-02-21T05:15:55;7.40;85.60
71668;DHT22;59504;54.806;9.640;2024-02-21T05:18:14;7.30;85.70
71668;DHT22;59504;54.806;9.640;2024-02-21T05:20:33;7.30;85.80
71668;DHT22;59504;54.806;9.640;2024-02-21T05:22:53;7.50;85.90
71668;DHT22;59504;54.806;9.640;2024-02-21T05:25:12;7.30;85.80
71668;DHT22;59504;54.806;9.640;2024-02-21T05:27:31;7.30;86.00
71668;DHT22;59504;54.806;9.640;2024-02-21T05:29:51;7.40;86.10
71668;DHT22;59504;54.806;9.640;2024-02-21T05:32:10;7.30;86.20
71668;DHT22;59504;54.806;9.640;2024-02-21T05:34:29;7.30;86.20
71668;DHT22;59504;54.806;9.640;2024-02-21T05:36:48;7.20;86.10
71668;DHT22;59504;54.806;9.640;2024-02-21T05:39:08;7.20;86.20
71668;DHT22;59504;54.806;9.640;2024-02-21T05:41:27;7.20;86.20
71668;DHT22;59504;54.806;9.640;2024-02-21T05:43:47;7.20;86.20
71668;DHT22;59504;54.806;9.640;2024-02-21T05:46:06;7.20;86.20
71668;DHT22;59504;54.806;9.640;2024-02-21T05:48:25;7.20;86.20
71668;DHT22;59504;54.806;9.640;2024-02-21T05:50:45;7.20;86.20
71668;DHT22;59504;54.806;9.640;2024-02-21T05:53:04;7.20;86.20
71668;DHT22;59504;54.806;9.640;2024-02-21T05:55:23;7.30;86.30
71668;DHT22;59504;54.806;9.640;2024-02-21T05:57:42;7.10;86.20
71668;DHT22;59504;54.806;9.640;2024-02-21T06:00:05;7.10;86.90
71668;DHT22;59504;54.806;9.640;2024-02-21T06:02:24;7.10;86.10
71668;DHT22;59504;54.806;9.640;2024-02-21T06:04:44;7.10;86.10
71668;DHT22;59504;54.806;9.640;2024-02-21T06:07:05;7.20;86.90
71668;DHT22;59504;54.806;9.640;2024-02-21T06:09:24;7.00;86.00
71668;DHT22;59504;54.806;9.640;2024-02-21T06:11:44;7.00;85.90
71668;DHT22;59504;54.806;9.640;2024-02-21T06:14:05;7.00;85.90
71668;DHT22;59504;54.806;9.640;2024-02-21T06:16:24;7.00;85.90
71668;DHT22;59504;54.806;9.640;2024-02-21T06:18:43;7.00;85.90
71668;DHT22;59504;54.806;9.640;2024-02-21T06:21:03;6.90;85.80
71668;DHT22;59504;54.806;9.640;2024-02-21T06:23:22;6.90;85.80
71668;DHT22;59504;54.806;9.640;2024-02-21T06:25:41;6.90;86.60
71668;DHT22;59504;54.806;9.640;2024-02-21T06:28:01;6.90;85.80
71668;DHT22;59504;54.806;9.640;2024-02-21T06:30:20;6.90;85.90
71668;DHT22;59504;54.806;9.640;2024-02-21T06:32:39;6.80;86.50
71668;DHT22;59504;54.806;9.640;2024-02-21T06:34:59;6.80;86.60
71668;DHT22;59504;54.806;9.640;2024-02-21T06:37:20;6.70;85.90
71668;DHT22;59504;54.806;9.640;2024-02-21T06:39:39;6.70;85.90
71668;DHT22;59504;54.806;9.640;2024-02-21T06:41:59;6.70;85.90
71668;DHT22;59504;54.806;9.640;2024-02-21T06:44:19;6.60;85.90
71668;DHT22;59504;54.806;9.640;2024-02-21T06:46:38;6.60;86.70
71668;DHT22;59504;54.806;9.640;2024-02-21T06:48:57;6.60;86.10
71668;DHT22;59504;54.806;9.640;2024-02-21T06:51:17;6.60;86.70
71668;DHT22;59504;54.806;9.640;2024-02-21T06:53:36;6.50;86.20
71668;DHT22;59504;54.806;9.640;2024-02-21T06:55:55;6.50;86.90
71668;DHT22;59504;54.806;9.640;2024-02-21T06:58:15;6.50;86.20
71668;DHT22;59504;54.806;9.640;2024-02-21T07:00:36;6.50;86.20
71668;DHT22;59504;54.806;9.640;2024-02-21T07:02:55;6.40;86.10
71668;DHT22;59504;54.806;9.640;2024-02-21T07:05:14;6.50;86.20
71668;DHT22;59504;54.806;9.640;2024-02-21T07:07:34;6.40;86.40
71668;DHT22;59504;54.806;9.640;2024-02-21T07:09:54;6.40;86.50
71668;DHT22;59504;54.806;9.640;2024-02-21T07:12:13;6.40;86.50
71668;DHT22;59504;54.806;9.640;2024-02-21T07:14:32;6.40;87.20
71668;DHT22;59504;54.806;9.640;2024-02-21T07:16:51;6.40;86.70
71668;DHT22;59504;54.806;9.640;2024-02-21T07:19:11;6.40;86.70
71668;DHT22;59504;54.806;9.640;2024-02-21T07:21:30;6.40;86.70
71668;DHT22;59504;54.806;9.640;2024-02-21T07:23:49;6.40;86.70
71668;DHT22;59504;54.806;9.640;2024-02-21T07:26:09;6.30;86.70
71668;DHT22;59504;54.806;9.640;2024-02-21T07:28:28;6.30;86.90
71668;DHT22;59504;54.806;9.640;2024-02-21T07:30:47;6.30;86.80
71668;DHT22;59504;54.806;9.640;2024-02-21T07:33:06;6.40;86.90
71668;DHT22;59504;54.806;9.640;2024-02-21T07:35:26;6.30;86.80
71668;DHT22;59504;54.806;9.640;2024-02-21T07:37:45;6.40;86.90
71668;DHT22;59504;54.806;9.640;2024-02-21T07:40:05;6.30;86.80
71668;DHT22;59504;54.806;9.640;2024-02-21T07:42:25;6.30;87.60
71668;DHT22;59504;54.806;9.640;2024-02-21T07:44:45;6.30;87.50
71668;DHT22;59504;54.806;9.640;2024-02-21T07:47:04;6.30;86.80
71668;DHT22;59504;54.806;9.640;2024-02-21T07:49:23;6.30;86.90
71668;DHT22;59504;54.806;9.640;2024-02-21T07:51:42;6.40;87.00
71668;DHT22;59504;54.806;9.640;2024-02-21T07:54:02;6.30;86.90
71668;DHT22;59504;54.806;9.640;2024-02-21T07:56:23;6.40;86.90
71668;DHT22;59504;54.806;9.640;2024-02-21T07:58:42;6.40;86.90
71668;DHT22;59504;54.806;9.640;2024-02-21T08:01:02;6.40;87.00
71668;DHT22;59504;54.806;9.640;2024-02-21T08:03:21;6.40;86.90
71668;DHT22;59504;54.806;9.640;2024-02-21T08:05:41;6.40;87.00
71668;DHT22;59504;54.806;9.640;2024-02-21T08:08:01;6.40;87.10
71668;DHT22;59504;54.806;9.640;2024-02-21T08:10:22;6.50;87.10
71668;DHT22;59504;54.806;9.640;2024-02-21T08:12:41;6.50;87.10
71668;DHT22;59504;54.806;9.640;2024-02-21T08:15:00;6.50;87.10
71668;DHT22;59504;54.806;9.640;2024-02-21T08:17:19;6.60;87.20
71668;DHT22;59504;54.806;9.640;2024-02-21T08:19:38;6.50;87.10
71668;DHT22;59504;54.806;9.640;2024-02-21T08:21:58;6.60;87.80
71668;DHT22;59504;54.806;9.640;2024-02-21T08:24:17;6.60;87.10
71668;DHT22;59504;54.806;9.640;2024-02-21T08:26:39;6.60;87.20
71668;DHT22;59504;54.806;9.640;2024-02-21T08:28:59;6.60;87.80
71668;DHT22;59504;54.806;9.640;2024-02-21T08:31:00;6.60;87.10
71668;DHT22;59504;54.806;9.640;2024-02-21T08:33:01;6.70;87.20
71668;DHT22;59504;54.806;9.640;2024-02-21T08:35:01;6.70;87.10
71668;DHT22;59504;54.806;9.640;2024-02-21T08:37:02;6.70;87.10
71668;DHT22;59504;54.806;9.640;2024-02-21T08:39:03;6.70;87.10
71668;DHT22;59504;54.806;9.640;2024-02-21T08:41:06;6.80;87.10
71668;DHT22;59504;54.806;9.640;2024-02-21T08:43:06;6.90;87.10
71668;DHT22;59504;54.806;9.640;2024-02-21T08:45:07;6.80;87.00
71668;DHT22;59504;54.806;9.640;2024-02-21T08:47:08;6.80;87.00
71668;DHT22;59504;54.806;9.640;2024-02-21T08:49:10;6.90;87.10
71668;DHT22;59504;54.806;9.640;2024-02-21T08:51:10;6.90;87.00
71668;DHT22;59504;54.806;9.640;2024-02-21T08:53:15;6.90;87.00
71668;DHT22;59504;54.806;9.640;2024-02-21T08:55:16;6.90;86.90
71668;DHT22;59504;54.806;9.640;2024-02-21T08:57:37;7.00;86.90
71668;DHT22;59504;54.806;9.640;2024-02-21T08:59:57;7.00;86.90
71668;DHT22;59504;54.806;9.640;2024-02-21T09:01:59;7.10;87.00
71668;DHT22;59504;54.806;9.640;2024-02-21T09:04:20;7.00;86.90
71668;DHT22;59504;54.806;9.640;2024-02-21T09:06:40;7.10;87.00
71668;DHT22;59504;54.806;9.640;2024-02-21T09:09:02;7.10;86.90
71668;DHT22;59504;54.806;9.640;2024-02-21T09:11:23;7.10;86.80
71668;DHT22;59504;54.806;9.640;2024-02-21T09:13:43;7.20;87.60
71668;DHT22;59504;54.806;9.640;2024-02-21T09:16:04;7.20;86.70
71668;DHT22;59504;54.806;9.640;2024-02-21T09:18:26;7.20;86.20
71668;DHT22;59504;54.806;9.640;2024-02-21T09:20:47;7.20;86.40
71668;DHT22;59504;54.806;9.640;2024-02-21T09:23:08;7.20;85.90
71668;DHT22;59504;54.806;9.640;2024-02-21T09:25:28;7.20;85.70
71668;DHT22;59504;54.806;9.640;2024-02-21T09:27:49;7.30;85.90
71668;DHT22;59504;54.806;9.640;2024-02-21T09:30:10;7.20;85.30
71668;DHT22;59504;54.806;9.640;2024-02-21T09:32:30;7.30;85.70
71668;DHT22;59504;54.806;9.640;2024-02-21T09:34:32;7.30;85.70
71668;DHT22;59504;54.806;9.640;2024-02-21T09:36:33;7.40;85.60
71668;DHT22;59504;54.806;9.640;2024-02-21T09:38:33;7.40;85.30
71668;DHT22;59504;54.806;9.640;2024-02-21T09:40:34;7.40;85.00
71668;DHT22;59504;54.806;9.640;2024-02-21T09:42:40;7.40;85.30
71668;DHT22;59504;54.806;9.640;2024-02-21T09:44:41;7.50;85.20
71668;DHT22;59504;54.806;9.640;2024-02-21T09:51:09;7.40;84.70
71668;DHT22;59504;54.806;9.640;2024-02-21T09:53:13;7.50;84.80
71668;DHT22;59504;54.806;9.640;2024-02-21T09:55:14;7.50;84.10
71668;DHT22;59504;54.806;9.640;2024-02-21T09:57:15;7.50;84.20
71668;DHT22;59504;54.806;9.640;2024-02-21T09:59:16;7.50;84.10
71668;DHT22;59504;54.806;9.640;2024-02-21T10:01:17;7.60;84.10
71668;DHT22;59504;54.806;9.640;2024-02-21T10:03:18;7.60;84.10
71668;DHT22;59504;54.806;9.640;2024-02-21T10:05:19;7.60;84.30
71668;DHT22;59504;54.806;9.640;2024-02-21T10:07:19;7.70;84.60
71668;DHT22;59504;54.806;9.640;2024-02-21T10:09:24;7.80;84.70
71668;DHT22;59504;54.806;9.640;2024-02-21T10:11:30;7.80;84.90
71668;DHT22;59504;54.806;9.640;2024-02-21T10:13:31;7.90;85.10
71668;DHT22;59504;54.806;9.640;2024-02-21T10:15:32;7.90;84.50
71668;DHT22;59504;54.806;9.640;2024-02-21T10:17:32;8.00;84.40
71668;DHT22;59504;54.806;9.640;2024-02-21T10:19:33;8.00;84.00
71668;DHT22;59504;54.806;9.640;2024-02-21T10:21:34;8.10;83.40
71668;DHT22;59504;54.806;9.640;2024-02-21T10:23:45;8.10;83.30
71668;DHT22;59504;54.806;9.640;2024-02-21T10:25:45;8.10;83.30
71668;DHT22;59504;54.806;9.640;2024-02-21T10:27:48;8.20;83.40
71668;DHT22;59504;54.806;9.640;2024-02-21T10:29:49;8.20;82.80
71668;DHT22;59504;54.806;9.640;2024-02-21T10:32:13;8.30;82.20
71668;DHT22;59504;54.806;9.640;2024-02-21T10:34:16;8.30;82.30
71668;DHT22;59504;54.806;9.640;2024-02-21T10:36:37;8.30;82.60
71668;DHT22;59504;54.806;9.640;2024-02-21T10:38:57;8.40;82.50
71668;DHT22;59504;54.806;9.640;2024-02-21T10:41:19;8.40;82.20
71668;DHT22;59504;54.806;9.640;2024-02-21T10:43:40;8.50;82.60
71668;DHT22;59504;54.806;9.640;2024-02-21T10:46:02;8.50;82.50
71668;DHT22;59504;54.806;9.640;2024-02-21T10:48:27;8.60;82.70
71668;DHT22;59504;54.806;9.640;2024-02-21T10:52:57;8.70;82.60
71668;DHT22;59504;54.806;9.640;2024-02-21T10:55:03;8.70;82.50
71668;DHT22;59504;54.806;9.640;2024-02-21T10:57:04;8.70;82.10
71668;DHT22;59504;54.806;9.640;2024-02-21T10:59:05;8.80;82.20
71668;DHT22;59504;54.806;9.640;2024-02-21T11:01:06;8.90;82.10
71668;DHT22;59504;54.806;9.640;2024-02-21T11:03:08;8.90;81.60
71668;DHT22;59504;54.806;9.640;2024-02-21T11:05:09;8.90;81.30
71668;DHT22;59504;54.806;9.640;2024-02-21T11:07:09;9.00;81.00
71668;DHT22;59504;54.806;9.640;2024-02-21T11:09:10;9.00;80.30
71668;DHT22;59504;54.806;9.640;2024-02-21T11:11:14;9.00;80.50
71668;DHT22;59504;54.806;9.640;2024-02-21T11:13:20;9.10;79.60
71668;DHT22;59504;54.806;9.640;2024-02-21T11:15:31;9.20;80.30
71668;DHT22;59504;54.806;9.640;2024-02-21T11:17:32;9.10;79.90
71668;DHT22;59504;54.806;9.640;2024-02-21T11:19:32;9.20;79.30
71668;DHT22;59504;54.806;9.640;2024-02-21T11:21:33;9.20;79.00
71668;DHT22;59504;54.806;9.640;2024-02-21T11:23:35;9.20;78.90
71668;DHT22;59504;54.806;9.640;2024-02-21T11:25:36;9.30;79.30
71668;DHT22;59504;54.806;9.640;2024-02-21T11:27:36;9.30;79.60
71668;DHT22;59504;54.806;9.640;2024-02-21T11:29:47;9.30;79.80
71668;DHT22;59504;54.806;9.640;2024-02-21T11:31:49;9.40;80.10
71668;DHT22;59504;54.806;9.640;2024-02-21T11:33:50;9.40;79.20
71668;DHT22;59504;54.806;9.640;2024-02-21T11:35:51;9.40;79.40
71668;DHT22;59504;54.806;9.640;2024-02-21T11:37:53;9.40;79.00
71668;DHT22;59504;54.806;9.640;2024-02-21T11:39:56;9.50;78.90
71668;DHT22;59504;54.806;9.640;2024-02-21T11:42:03;9.50;78.90
71668;DHT22;59504;54.806;9.640;2024-02-21T11:44:04;9.50;78.30
71668;DHT22;59504;54.806;9.640;2024-02-21T11:46:04;9.50;78.00
71668;DHT22;59504;54.806;9.640;2024-02-21T11:48:06;9.50;77.90
71668;DHT22;59504;54.806;9.640;2024-02-21T11:50:09;9.60;77.40
71668;DHT22;59504;54.806;9.640;2024-02-21T11:52:10;9.60;76.50
71668;DHT22;59504;54.806;9.640;2024-02-21T11:54:30;9.70;77.60
71668;DHT22;59504;54.806;9.640;2024-02-21T11:56:31;9.70;78.30
71668;DHT22;59504;54.806;9.640;2024-02-21T11:58:32;9.70;78.00
71668;DHT22;59504;54.806;9.640;2024-02-21T12:00:53;9.80;78.90
71668;DHT22;59504;54.806;9.640;2024-02-21T12:03:04;9.80;79.00
71668;DHT22;59504;54.806;9.640;2024-02-21T12:05:05;9.80;79.10
71668;DHT22;59504;54.806;9.640;2024-02-21T12:07:05;9.80;79.30
71668;DHT22;59504;54.806;9.640;2024-02-21T12:09:07;9.80;78.80
71668;DHT22;59504;54.806;9.640;2024-02-21T12:11:22;9.90;79.10
71668;DHT22;59504;54.806;9.640;2024-02-21T12:13:22;9.90;79.10
71668;DHT22;59504;54.806;9.640;2024-02-21T12:15:23;10.00;78.90
71668;DHT22;59504;54.806;9.640;2024-02-21T12:17:24;10.10;79.30
71668;DHT22;59504;54.806;9.640;2024-02-21T12:19:24;10.00;78.90
71668;DHT22;59504;54.806;9.640;2024-02-21T12:21:32;10.00;78.90
71668;DHT22;59504;54.806;9.640;2024-02-21T12:23:33;10.00;79.10
71668;DHT22;59504;54.806;9.640;2024-02-21T12:25:33;10.10;78.70
71668;DHT22;59504;54.806;9.640;2024-02-21T12:27:34;10.10;78.80
71668;DHT22;59504;54.806;9.640;2024-02-21T12:29:35;10.10;79.30
71668;DHT22;59504;54.806;9.640;2024-02-21T12:31:45;10.10;79.30
71668;DHT22;59504;54.806;9.640;2024-02-21T12:33:47;10.10;79.40
71668;DHT22;59504;54.806;9.640;2024-02-21T12:35:48;10.20;79.80
71668;DHT22;59504;54.806;9.640;2024-02-21T12:37:49;10.20;79.70
71668;DHT22;59504;54.806;9.640;2024-02-21T12:39:50;10.30;79.40
71668;DHT22;59504;54.806;9.640;2024-02-21T12:41:51;10.20;79.50
71668;DHT22;59504;54.806;9.640;2024-02-21T12:43:52;10.20;78.40
71668;DHT22;59504;54.806;9.640;2024-02-21T12:45:53;10.20;78.40
71668;DHT22;59504;54.806;9.640;2024-02-21T12:47:59;10.20;78.50
71668;DHT22;59504;54.806;9.640;2024-02-21T12:49:59;10.20;78.30
71668;DHT22;59504;54.806;9.640;2024-02-21T12:52:20;10.20;78.30
71668;DHT22;59504;54.806;9.640;2024-02-21T12:54:40;10.20;77.90
71668;DHT22;59504;54.806;9.640;2024-02-21T12:57:02;10.20;78.30
71668;DHT22;59504;54.806;9.640;2024-02-21T12:59:23;10.20;78.20
71668;DHT22;59504;54.806;9.640;2024-02-21T13:01:24;10.20;78.50
71668;DHT22;59504;54.806;9.640;2024-02-21T13:03:24;10.20;78.80
71668;DHT22;59504;54.806;9.640;2024-02-21T13:05:26;10.20;78.70
71668;DHT22;59504;54.806;9.640;2024-02-21T13:07:26;10.20;78.70
71668;DHT22;59504;54.806;9.640;2024-02-21T13:09:27;10.20;78.20
71668;DHT22;59504;54.806;9.640;2024-02-21T13:11:27;10.20;78.40
71668;DHT22;59504;54.806;9.640;2024-02-21T13:13:31;10.10;78.80
71668;DHT22;59504;54.806;9.640;2024-02-21T13:15:32;10.10;79.20
71668;DHT22;59504;54.806;9.640;2024-02-21T13:17:33;10.20;79.40
71668;DHT22;59504;54.806;9.640;2024-02-21T13:19:33;10.10;79.50
71668;DHT22;59504;54.806;9.640;2024-02-21T13:21:54;10.10;79.30
71668;DHT22;59504;54.806;9.640;2024-02-21T13:24:14;10.10;79.60
71668;DHT22;59504;54.806;9.640;2024-02-21T13:26:15;10.00;79.40
71668;DHT22;59504;54.806;9.640;2024-02-21T13:28:35;10.00;79.60
71668;DHT22;59504;54.806;9.640;2024-02-21T13:30:56;10.00;79.80
71668;DHT22;59504;54.806;9.640;2024-02-21T13:33:17;10.00;80.20
71668;DHT22;59504;54.806;9.640;2024-02-21T13:35:38;9.90;80.20
71668;DHT22;59504;54.806;9.640;2024-02-21T13:37:59;9.90;80.40
71668;DHT22;59504;54.806;9.640;2024-02-21T13:40:20;9.90;80.40
71668;DHT22;59504;54.806;9.640;2024-02-21T13:42:41;9.90;80.70
71668;DHT22;59504;54.806;9.640;2024-02-21T13:45:01;9.90;80.70
71668;DHT22;59504;54.806;9.640;2024-02-21T13:47:23;9.80;80.80
71668;DHT22;59504;54.806;9.640;2024-02-21T13:49:43;9.80;81.00
71668;DHT22;59504;54.806;9.640;2024-02-21T13:52:04;9.80;81.30
71668;DHT22;59504;54.806;9.640;2024-02-21T13:54:24;9.80;81.30
71668;DHT22;59504;54.806;9.640;2024-02-21T13:56:45;9.70;81.50
71668;DHT22;59504;54.806;9.640;2024-02-21T13:59:05;9.90;81.80
71668;DHT22;59504;54.806;9.640;2024-02-21T14:01:26;9.80;81.80
71668;DHT22;59504;54.806;9.640;2024-02-21T14:03:38;9.80;81.90
71668;DHT22;59504;54.806;9.640;2024-02-21T14:05:58;9.70;82.00
71668;DHT22;59504;54.806;9.640;2024-02-21T14:08:19;9.70;82.00
71668;DHT22;59504;54.806;9.640;2024-02-21T14:10:40;9.70;82.20
71668;DHT22;59504;54.806;9.640;2024-02-21T14:13:01;9.70;82.20
71668;DHT22;59504;54.806;9.640;2024-02-21T14:15:21;9.70;82.50
71668;DHT22;59504;54.806;9.640;2024-02-21T14:17:42;9.70;82.60
71668;DHT22;59504;54.806;9.640;2024-02-21T14:19:43;9.60;82.70
71668;DHT22;59504;54.806;9.640;2024-02-21T14:21:43;9.60;82.70
71668;DHT22;59504;54.806;9.640;2024-02-21T14:23:45;9.60;82.90
71668;DHT22;59504;54.806;9.640;2024-02-21T14:25:45;9.70;83.00
71668;DHT22;59504;54.806;9.640;2024-02-21T14:27:46;9.70;83.30
71668;DHT22;59504;54.806;9.640;2024-02-21T14:29:46;9.70;83.10